Time;durP1;ratioP1;P1;durP2;ratioP2;P2;SDS_P1;SDS_P2;PMS_P1;PMS_P2;Temp;Humidity;BMP_temperature;BMP_pressure;BME280_temperature;BME280_humidity;BME280_pressure;Samples;Min_cycle;Max_cycle;Signal;HPM_P1;HPM_P2
2022/01/15 00:00:49;;;;;;;6.5;4.65;;;;;;;-2.66;65.57324;96447.85;;;;
2022/01/15 00:01:50;;;;;;;6.5;4.65;;;;;;;-2.66;65.57324;96447.85;;;;
2022/01/15 00:02:51;;;;;;;6.5;4.65;;;;;;;-2.66;65.57324;96447.85;;;;
2022/01/15 00:03:51;;;;;;;6.5;4.65;;;;;;;-2.66;65.57324;96447.85;;;;
2022/01/15 00:04:52;;;;;;;6.5;4.65;;;;;;;-2.66;65.57324;96447.85;;;;
2022/01/15 00:05:54;;;;;;;6.5;4.65;;;;;;;-2.66;65.57324;96447.85;;;;
2022/01/15 00:06:54;;;;;;;6.5;4.65;;;;;;;-2.66;65.57324;96447.85;;;;
2022/01/15 00:07:55;;;;;;;6.5;4.65;;;;;;;-2.66;65.57324;96447.85;;;;
2022/01/15 00:08:56;;;;;;;7.05;4.550001;;;;;;;-2.73;65.69824;96436.07;;;;
2022/01/15 00:09:56;;;;;;;7.05;4.550001;;;;;;;-2.73;65.69824;96436.07;;;;
2022/01/15 00:10:57;;;;;;;7.05;4.550001;;;;;;;-2.73;65.69824;96436.07;;;;
2022/01/15 00:11:58;;;;;;;7.05;4.550001;;;;;;;-2.73;65.69824;96436.07;;;;
2022/01/15 00:12:58;;;;;;;7.05;4.550001;;;;;;;-2.73;65.69824;96436.07;;;;
2022/01/15 00:14:12;;;;;;;7.05;4.550001;;;;;;;-2.73;65.69824;96436.07;;;;
2022/01/15 00:15:16;;;;;;;7.05;4.550001;;;;;;;-2.73;65.69824;96436.07;;;;
2022/01/15 00:16:29;;;;;;;7.05;4.550001;;;;;;;-2.73;65.69824;96436.07;;;;
2022/01/15 00:17:44;;;;;;;7.05;4.550001;;;;;;;-2.73;65.69824;96436.07;;;;
2022/01/15 00:18:48;;;;;;;7.4;4.150001;;;;;;;-2.79;65.80371;96437.02;;;;
2022/01/15 00:19:50;;;;;;;7.4;4.150001;;;;;;;-2.79;65.80371;96437.02;;;;
2022/01/15 00:20:51;;;;;;;7.4;4.150001;;;;;;;-2.79;65.80371;96437.02;;;;
2022/01/15 00:21:51;;;;;;;7.4;4.150001;;;;;;;-2.79;65.80371;96437.02;;;;
2022/01/15 00:22:52;;;;;;;7.4;4.150001;;;;;;;-2.79;65.80371;96437.02;;;;
2022/01/15 00:23:54;;;;;;;7.4;4.150001;;;;;;;-2.79;65.80371;96437.02;;;;
2022/01/15 00:24:54;;;;;;;7.4;4.150001;;;;;;;-2.79;65.80371;96437.02;;;;
2022/01/15 00:25:55;;;;;;;7.4;4.150001;;;;;;;-2.79;65.80371;96437.02;;;;
2022/01/15 00:26:56;;;;;;;7.4;4.150001;;;;;;;-2.79;65.80371;96437.02;;;;
2022/01/15 00:27:56;;;;;;;7.4;4.150001;;;;;;;-2.79;65.80371;96437.02;;;;
2022/01/15 00:28:58;;;;;;;7.4;4.150001;;;;;;;-2.79;65.80371;96437.02;;;;
2022/01/15 00:30:00;;;;;;;6.35;4.199999;;;;;;;-2.84;65.91113;96428.14;;;;
2022/01/15 00:31:02;;;;;;;6.35;4.199999;;;;;;;-2.84;65.91113;96428.14;;;;
2022/01/15 00:32:02;;;;;;;6.35;4.199999;;;;;;;-2.84;65.91113;96428.14;;;;
2022/01/15 00:33:06;;;;;;;6.35;4.199999;;;;;;;-2.84;65.91113;96428.14;;;;
2022/01/15 00:34:06;;;;;;;6.35;4.199999;;;;;;;-2.84;65.91113;96428.14;;;;
2022/01/15 00:35:07;;;;;;;6.35;4.199999;;;;;;;-2.84;65.91113;96428.14;;;;
2022/01/15 00:36:10;;;;;;;6.35;4.199999;;;;;;;-2.84;65.91113;96428.14;;;;
2022/01/15 00:37:10;;;;;;;6.35;4.199999;;;;;;;-2.84;65.91113;96428.14;;;;
2022/01/15 00:38:11;;;;;;;6.35;4.199999;;;;;;;-2.84;65.91113;96428.14;;;;
2022/01/15 00:39:11;;;;;;;6.35;4.199999;;;;;;;-2.84;65.91113;96428.14;;;;
2022/01/15 00:40:12;;;;;;;7.15;4.349999;;;;;;;-2.92;66.04395;96431.91;;;;
2022/01/15 00:41:18;;;;;;;7.15;4.349999;;;;;;;-2.92;66.04395;96431.91;;;;
2022/01/15 00:42:18;;;;;;;7.15;4.349999;;;;;;;-2.92;66.04395;96431.91;;;;
2022/01/15 00:43:19;;;;;;;7.15;4.349999;;;;;;;-2.92;66.04395;96431.91;;;;
2022/01/15 00:44:20;;;;;;;7.15;4.349999;;;;;;;-2.92;66.04395;96431.91;;;;
2022/01/15 00:45:22;;;;;;;7.15;4.349999;;;;;;;-2.92;66.04395;96431.91;;;;
2022/01/15 00:46:22;;;;;;;7.15;4.349999;;;;;;;-2.92;66.04395;96431.91;;;;
2022/01/15 00:47:25;;;;;;;7.15;4.349999;;;;;;;-2.92;66.04395;96431.91;;;;
2022/01/15 00:48:26;;;;;;;7.15;4.349999;;;;;;;-2.92;66.04395;96431.91;;;;
2022/01/15 00:49:27;;;;;;;7.15;4.349999;;;;;;;-2.92;66.04395;96431.91;;;;
2022/01/15 00:50:27;;;;;;;7.15;4.349999;;;;;;;-2.92;66.04395;96431.91;;;;
2022/01/15 00:51:28;;;;;;;7.15;4.699999;;;;;;;-3.01;66.14355;96418.14;;;;
2022/01/15 00:52:28;;;;;;;7.15;4.699999;;;;;;;-3.01;66.14355;96418.14;;;;
2022/01/15 00:53:29;;;;;;;7.15;4.699999;;;;;;;-3.01;66.14355;96418.14;;;;
2022/01/15 00:54:29;;;;;;;7.15;4.699999;;;;;;;-3.01;66.14355;96418.14;;;;
2022/01/15 00:55:30;;;;;;;7.15;4.699999;;;;;;;-3.01;66.14355;96418.14;;;;
2022/01/15 00:56:30;;;;;;;7.15;4.699999;;;;;;;-3.01;66.14355;96418.14;;;;
2022/01/15 00:57:31;;;;;;;7.15;4.699999;;;;;;;-3.01;66.14355;96418.14;;;;
2022/01/15 00:58:31;;;;;;;7.15;4.699999;;;;;;;-3.01;66.14355;96418.14;;;;
2022/01/15 00:59:32;;;;;;;7.15;4.699999;;;;;;;-3.01;66.14355;96418.14;;;;
2022/01/15 01:00:32;;;;;;;7.15;4.699999;;;;;;;-3.01;66.14355;96418.14;;;;
2022/01/15 01:01:34;;;;;;;8.3;5.15;;;;;;;-3.08;66.28809;96420.08;;;;
2022/01/15 01:02:34;;;;;;;8.3;5.15;;;;;;;-3.08;66.28809;96420.08;;;;
2022/01/15 01:03:35;;;;;;;8.3;5.15;;;;;;;-3.08;66.28809;96420.08;;;;
2022/01/15 01:04:35;;;;;;;8.3;5.15;;;;;;;-3.08;66.28809;96420.08;;;;
2022/01/15 01:05:36;;;;;;;8.3;5.15;;;;;;;-3.08;66.28809;96420.08;;;;
2022/01/15 01:06:36;;;;;;;8.3;5.15;;;;;;;-3.08;66.28809;96420.08;;;;
2022/01/15 01:07:37;;;;;;;8.3;5.15;;;;;;;-3.08;66.28809;96420.08;;;;
2022/01/15 01:08:38;;;;;;;8.3;5.15;;;;;;;-3.08;66.28809;96420.08;;;;
2022/01/15 01:09:56;;;;;;;8.3;5.15;;;;;;;-3.08;66.28809;96420.08;;;;
2022/01/15 01:10:58;;;;;;;8.3;5.15;;;;;;;-3.08;66.28809;96420.08;;;;
2022/01/15 01:12:19;;;;;;;8.3;5.15;;;;;;;-3.08;66.28809;96420.08;;;;
2022/01/15 01:13:40;;;;;;;6.349999;4.55;;;;;;;-3.1;66.31641;96418.47;;;;
2022/01/15 01:20:11;;;;;;;6.349999;4.55;;;;;;;-3.1;66.31641;96418.47;;;;
2022/01/15 01:21:45;;;;;;;6.349999;4.55;;;;;;;-3.1;66.31641;96418.47;;;;
2022/01/15 01:22:55;;;;;;;7.399999;4.5;;;;;;;-3.13;66.32227;96423.08;;;;
2022/01/15 01:23:56;;;;;;;7.399999;4.5;;;;;;;-3.13;66.32227;96423.08;;;;
2022/01/15 01:24:57;;;;;;;7.399999;4.5;;;;;;;-3.13;66.32227;96423.08;;;;
2022/01/15 01:26:04;;;;;;;7.399999;4.5;;;;;;;-3.13;66.32227;96423.08;;;;
2022/01/15 01:27:10;;;;;;;7.399999;4.5;;;;;;;-3.13;66.32227;96423.08;;;;
2022/01/15 01:28:15;;;;;;;7.399999;4.5;;;;;;;-3.13;66.32227;96423.08;;;;
2022/01/15 01:29:27;;;;;;;7.399999;4.5;;;;;;;-3.13;66.32227;96423.08;;;;
2022/01/15 01:30:34;;;;;;;7.399999;4.5;;;;;;;-3.13;66.32227;96423.08;;;;
2022/01/15 01:31:39;;;;;;;7.399999;4.5;;;;;;;-3.13;66.32227;96423.08;;;;
2022/01/15 01:32:48;;;;;;;7.399999;4.5;;;;;;;-3.13;66.32227;96423.08;;;;
2022/01/15 01:33:53;;;;;;;8.5;4.7;;;;;;;-3.17;66.41992;96419.51;;;;
2022/01/15 01:34:54;;;;;;;8.5;4.7;;;;;;;-3.17;66.41992;96419.51;;;;
2022/01/15 01:36:10;;;;;;;8.5;4.7;;;;;;;-3.17;66.41992;96419.51;;;;
2022/01/15 01:37:15;;;;;;;8.5;4.7;;;;;;;-3.17;66.41992;96419.51;;;;
2022/01/15 01:38:25;;;;;;;8.5;4.7;;;;;;;-3.17;66.41992;96419.51;;;;
2022/01/15 01:39:35;;;;;;;8.5;4.7;;;;;;;-3.17;66.41992;96419.51;;;;
2022/01/15 01:40:40;;;;;;;8.5;4.7;;;;;;;-3.17;66.41992;96419.51;;;;
2022/01/15 01:41:48;;;;;;;8.5;4.7;;;;;;;-3.17;66.41992;96419.51;;;;
2022/01/15 01:42:57;;;;;;;8.5;4.7;;;;;;;-3.17;66.41992;96419.51;;;;
2022/01/15 01:44:00;;;;;;;8.5;4.7;;;;;;;-3.17;66.41992;96419.51;;;;
2022/01/15 01:45:04;;;;;;;7.3;4.699999;;;;;;;-3.25;66.45898;96407.81;;;;
2022/01/15 01:46:20;;;;;;;7.3;4.699999;;;;;;;-3.25;66.45898;96407.81;;;;
2022/01/15 01:47:31;;;;;;;7.3;4.699999;;;;;;;-3.25;66.45898;96407.81;;;;
2022/01/15 01:48:33;;;;;;;7.3;4.699999;;;;;;;-3.25;66.45898;96407.81;;;;
2022/01/15 01:49:33;;;;;;;7.3;4.699999;;;;;;;-3.25;66.45898;96407.81;;;;
2022/01/15 01:50:34;;;;;;;7.3;4.699999;;;;;;;-3.25;66.45898;96407.81;;;;
2022/01/15 01:51:34;;;;;;;7.3;4.699999;;;;;;;-3.25;66.45898;96407.81;;;;
2022/01/15 01:52:37;;;;;;;7.3;4.699999;;;;;;;-3.25;66.45898;96407.81;;;;
2022/01/15 01:53:38;;;;;;;7.3;4.699999;;;;;;;-3.25;66.45898;96407.81;;;;
2022/01/15 01:54:39;;;;;;;7.3;4.699999;;;;;;;-3.25;66.45898;96407.81;;;;
2022/01/15 01:55:39;;;;;;;6.349999;4.35;;;;;;;-3.33;66.51953;96392.67;;;;
2022/01/15 01:56:40;;;;;;;6.349999;4.35;;;;;;;-3.33;66.51953;96392.67;;;;
2022/01/15 01:57:40;;;;;;;6.349999;4.35;;;;;;;-3.33;66.51953;96392.67;;;;
2022/01/15 01:58:42;;;;;;;6.349999;4.35;;;;;;;-3.33;66.51953;96392.67;;;;
2022/01/15 01:59:42;;;;;;;6.349999;4.35;;;;;;;-3.33;66.51953;96392.67;;;;
2022/01/15 02:00:43;;;;;;;6.349999;4.35;;;;;;;-3.33;66.51953;96392.67;;;;
2022/01/15 02:01:44;;;;;;;6.349999;4.35;;;;;;;-3.33;66.51953;96392.67;;;;
2022/01/15 02:02:44;;;;;;;6.349999;4.35;;;;;;;-3.33;66.51953;96392.67;;;;
2022/01/15 02:03:45;;;;;;;6.349999;4.35;;;;;;;-3.33;66.51953;96392.67;;;;
2022/01/15 02:04:46;;;;;;;6.349999;4.35;;;;;;;-3.33;66.51953;96392.67;;;;
2022/01/15 02:05:46;;;;;;;6.25;4.199999;;;;;;;-3.42;66.6709;96390.31;;;;
2022/01/15 02:06:52;;;;;;;6.25;4.199999;;;;;;;-3.42;66.6709;96390.31;;;;
2022/01/15 02:07:53;;;;;;;6.25;4.199999;;;;;;;-3.42;66.6709;96390.31;;;;
2022/01/15 02:08:55;;;;;;;6.25;4.199999;;;;;;;-3.42;66.6709;96390.31;;;;
2022/01/15 02:09:56;;;;;;;6.25;4.199999;;;;;;;-3.42;66.6709;96390.31;;;;
2022/01/15 02:10:57;;;;;;;6.25;4.199999;;;;;;;-3.42;66.6709;96390.31;;;;
2022/01/15 02:11:59;;;;;;;6.25;4.199999;;;;;;;-3.42;66.6709;96390.31;;;;
2022/01/15 02:13:01;;;;;;;6.25;4.199999;;;;;;;-3.42;66.6709;96390.31;;;;
2022/01/15 02:14:01;;;;;;;6.25;4.199999;;;;;;;-3.42;66.6709;96390.31;;;;
2022/01/15 02:15:02;;;;;;;6.25;4.199999;;;;;;;-3.42;66.6709;96390.31;;;;
2022/01/15 02:16:08;;;;;;;6.35;4.200001;;;;;;;-3.46;66.74805;96369.5;;;;
2022/01/15 02:17:11;;;;;;;6.35;4.200001;;;;;;;-3.46;66.74805;96369.5;;;;
2022/01/15 02:18:13;;;;;;;6.35;4.200001;;;;;;;-3.46;66.74805;96369.5;;;;
2022/01/15 02:19:14;;;;;;;6.35;4.200001;;;;;;;-3.46;66.74805;96369.5;;;;
2022/01/15 02:20:34;;;;;;;6.35;4.200001;;;;;;;-3.46;66.74805;96369.5;;;;
2022/01/15 02:26:48;;;;;;;7.349999;4.45;;;;;;;-3.51;66.80273;96354.1;;;;
2022/01/15 02:27:49;;;;;;;7.349999;4.45;;;;;;;-3.51;66.80273;96354.1;;;;
2022/01/15 02:28:49;;;;;;;7.349999;4.45;;;;;;;-3.51;66.80273;96354.1;;;;
2022/01/15 02:29:53;;;;;;;7.349999;4.45;;;;;;;-3.51;66.80273;96354.1;;;;
2022/01/15 02:30:54;;;;;;;7.349999;4.45;;;;;;;-3.51;66.80273;96354.1;;;;
2022/01/15 02:31:57;;;;;;;7.349999;4.45;;;;;;;-3.51;66.80273;96354.1;;;;
2022/01/15 02:32:57;;;;;;;7.349999;4.45;;;;;;;-3.51;66.80273;96354.1;;;;
2022/01/15 02:33:58;;;;;;;7.349999;4.45;;;;;;;-3.51;66.80273;96354.1;;;;
2022/01/15 02:35:03;;;;;;;7.349999;4.45;;;;;;;-3.51;66.80273;96354.1;;;;
2022/01/15 02:36:04;;;;;;;7.349999;4.45;;;;;;;-3.51;66.80273;96354.1;;;;
2022/01/15 02:37:09;;;;;;;7.349999;4.45;;;;;;;-3.51;66.80273;96354.1;;;;
2022/01/15 02:38:11;;;;;;;8.200001;4.95;;;;;;;-3.67;66.91211;96347.45;;;;
2022/01/15 02:39:12;;;;;;;8.200001;4.95;;;;;;;-3.67;66.91211;96347.45;;;;
2022/01/15 02:40:12;;;;;;;8.200001;4.95;;;;;;;-3.67;66.91211;96347.45;;;;
2022/01/15 02:41:14;;;;;;;8.200001;4.95;;;;;;;-3.67;66.91211;96347.45;;;;
2022/01/15 02:42:15;;;;;;;8.200001;4.95;;;;;;;-3.67;66.91211;96347.45;;;;
2022/01/15 02:43:18;;;;;;;8.200001;4.95;;;;;;;-3.67;66.91211;96347.45;;;;
2022/01/15 02:44:21;;;;;;;8.200001;4.95;;;;;;;-3.67;66.91211;96347.45;;;;
2022/01/15 02:45:22;;;;;;;8.200001;4.95;;;;;;;-3.67;66.91211;96347.45;;;;
2022/01/15 02:46:34;;;;;;;8.200001;4.95;;;;;;;-3.67;66.91211;96347.45;;;;
2022/01/15 02:48:08;;;;;;;8.200001;4.95;;;;;;;-3.67;66.91211;96347.45;;;;
2022/01/15 02:49:11;;;;;;;9.099999;5.25;;;;;;;-3.74;67.12988;96342.74;;;;
2022/01/15 02:50:11;;;;;;;9.099999;5.25;;;;;;;-3.74;67.12988;96342.74;;;;
2022/01/15 02:51:12;;;;;;;9.099999;5.25;;;;;;;-3.74;67.12988;96342.74;;;;
2022/01/15 02:52:13;;;;;;;9.099999;5.25;;;;;;;-3.74;67.12988;96342.74;;;;
2022/01/15 02:53:16;;;;;;;9.099999;5.25;;;;;;;-3.74;67.12988;96342.74;;;;
2022/01/15 02:54:17;;;;;;;9.099999;5.25;;;;;;;-3.74;67.12988;96342.74;;;;
2022/01/15 02:55:17;;;;;;;9.099999;5.25;;;;;;;-3.74;67.12988;96342.74;;;;
2022/01/15 02:56:18;;;;;;;9.099999;5.25;;;;;;;-3.74;67.12988;96342.74;;;;
2022/01/15 02:57:18;;;;;;;9.099999;5.25;;;;;;;-3.74;67.12988;96342.74;;;;
2022/01/15 02:58:19;;;;;;;9.099999;5.25;;;;;;;-3.74;67.12988;96342.74;;;;
2022/01/15 02:59:21;;;;;;;7.8;4.950001;;;;;;;-3.79;67.13086;96330.88;;;;
2022/01/15 03:00:24;;;;;;;7.8;4.950001;;;;;;;-3.79;67.13086;96330.88;;;;
2022/01/15 03:01:26;;;;;;;7.8;4.950001;;;;;;;-3.79;67.13086;96330.88;;;;
2022/01/15 03:02:31;;;;;;;7.8;4.950001;;;;;;;-3.79;67.13086;96330.88;;;;
2022/01/15 03:03:31;;;;;;;7.8;4.950001;;;;;;;-3.79;67.13086;96330.88;;;;
2022/01/15 03:04:33;;;;;;;7.8;4.950001;;;;;;;-3.79;67.13086;96330.88;;;;
2022/01/15 03:05:33;;;;;;;7.8;4.950001;;;;;;;-3.79;67.13086;96330.88;;;;
2022/01/15 03:06:34;;;;;;;7.8;4.950001;;;;;;;-3.79;67.13086;96330.88;;;;
2022/01/15 03:07:36;;;;;;;7.8;4.950001;;;;;;;-3.79;67.13086;96330.88;;;;
2022/01/15 03:08:36;;;;;;;7.8;4.950001;;;;;;;-3.79;67.13086;96330.88;;;;
2022/01/15 03:09:40;;;;;;;7.950001;5;;;;;;;-3.88;67.29199;96317.11;;;;
2022/01/15 03:10:41;;;;;;;7.950001;5;;;;;;;-3.88;67.29199;96317.11;;;;
2022/01/15 03:11:42;;;;;;;7.950001;5;;;;;;;-3.88;67.29199;96317.11;;;;
2022/01/15 03:12:42;;;;;;;7.950001;5;;;;;;;-3.88;67.29199;96317.11;;;;
2022/01/15 03:13:43;;;;;;;7.950001;5;;;;;;;-3.88;67.29199;96317.11;;;;
2022/01/15 03:14:47;;;;;;;7.950001;5;;;;;;;-3.88;67.29199;96317.11;;;;
2022/01/15 03:15:48;;;;;;;7.950001;5;;;;;;;-3.88;67.29199;96317.11;;;;
2022/01/15 03:16:48;;;;;;;7.950001;5;;;;;;;-3.88;67.29199;96317.11;;;;
2022/01/15 03:17:49;;;;;;;7.950001;5;;;;;;;-3.88;67.29199;96317.11;;;;
2022/01/15 03:18:49;;;;;;;7.950001;5;;;;;;;-3.88;67.29199;96317.11;;;;
2022/01/15 03:19:50;;;;;;;7.950001;5;;;;;;;-3.88;67.29199;96317.11;;;;
2022/01/15 03:20:51;;;;;;;7.1;4.6;;;;;;;-3.95;67.45801;96308.01;;;;
2022/01/15 03:21:51;;;;;;;7.1;4.6;;;;;;;-3.95;67.45801;96308.01;;;;
2022/01/15 03:22:51;;;;;;;7.1;4.6;;;;;;;-3.95;67.45801;96308.01;;;;
2022/01/15 03:23:52;;;;;;;7.1;4.6;;;;;;;-3.95;67.45801;96308.01;;;;
2022/01/15 03:24:52;;;;;;;7.1;4.6;;;;;;;-3.95;67.45801;96308.01;;;;
2022/01/15 03:25:53;;;;;;;7.1;4.6;;;;;;;-3.95;67.45801;96308.01;;;;
2022/01/15 03:26:53;;;;;;;7.1;4.6;;;;;;;-3.95;67.45801;96308.01;;;;
2022/01/15 03:27:54;;;;;;;7.1;4.6;;;;;;;-3.95;67.45801;96308.01;;;;
2022/01/15 03:28:55;;;;;;;7.1;4.6;;;;;;;-3.95;67.45801;96308.01;;;;
2022/01/15 03:29:55;;;;;;;7.1;4.6;;;;;;;-3.95;67.45801;96308.01;;;;
2022/01/15 03:30:56;;;;;;;9.000001;4.75;;;;;;;-3.97;67.45508;96298.92;;;;
2022/01/15 03:31:56;;;;;;;9.000001;4.75;;;;;;;-3.97;67.45508;96298.92;;;;
2022/01/15 03:32:56;;;;;;;9.000001;4.75;;;;;;;-3.97;67.45508;96298.92;;;;
2022/01/15 03:33:57;;;;;;;9.000001;4.75;;;;;;;-3.97;67.45508;96298.92;;;;
2022/01/15 03:34:58;;;;;;;9.000001;4.75;;;;;;;-3.97;67.45508;96298.92;;;;
2022/01/15 03:35:58;;;;;;;9.000001;4.75;;;;;;;-3.97;67.45508;96298.92;;;;
2022/01/15 03:36:59;;;;;;;9.000001;4.75;;;;;;;-3.97;67.45508;96298.92;;;;
2022/01/15 03:37:59;;;;;;;9.000001;4.75;;;;;;;-3.97;67.45508;96298.92;;;;
2022/01/15 03:39:00;;;;;;;9.000001;4.75;;;;;;;-3.97;67.45508;96298.92;;;;
2022/01/15 03:40:01;;;;;;;9.000001;4.75;;;;;;;-3.97;67.45508;96298.92;;;;
2022/01/15 03:41:01;;;;;;;9.000001;4.75;;;;;;;-3.97;67.45508;96298.92;;;;
2022/01/15 03:42:02;;;;;;;8.450001;4.9;;;;;;;-4;67.44922;96293.05;;;;
2022/01/15 03:43:04;;;;;;;8.450001;4.9;;;;;;;-4;67.44922;96293.05;;;;
2022/01/15 03:44:05;;;;;;;8.450001;4.9;;;;;;;-4;67.44922;96293.05;;;;
2022/01/15 03:45:06;;;;;;;8.450001;4.9;;;;;;;-4;67.44922;96293.05;;;;
2022/01/15 03:46:08;;;;;;;8.450001;4.9;;;;;;;-4;67.44922;96293.05;;;;
2022/01/15 03:47:08;;;;;;;8.450001;4.9;;;;;;;-4;67.44922;96293.05;;;;
2022/01/15 03:48:09;;;;;;;8.450001;4.9;;;;;;;-4;67.44922;96293.05;;;;
2022/01/15 03:49:09;;;;;;;8.450001;4.9;;;;;;;-4;67.44922;96293.05;;;;
2022/01/15 03:50:10;;;;;;;8.450001;4.9;;;;;;;-4;67.44922;96293.05;;;;
2022/01/15 03:51:11;;;;;;;8.450001;4.9;;;;;;;-4;67.44922;96293.05;;;;
2022/01/15 03:52:12;;;;;;;8.75;5.35;;;;;;;-4.1;67.59961;96286.43;;;;
2022/01/15 03:53:12;;;;;;;8.75;5.35;;;;;;;-4.1;67.59961;96286.43;;;;
2022/01/15 03:54:13;;;;;;;8.75;5.35;;;;;;;-4.1;67.59961;96286.43;;;;
2022/01/15 03:55:14;;;;;;;8.75;5.35;;;;;;;-4.1;67.59961;96286.43;;;;
2022/01/15 03:56:15;;;;;;;8.75;5.35;;;;;;;-4.1;67.59961;96286.43;;;;
2022/01/15 03:57:16;;;;;;;8.75;5.35;;;;;;;-4.1;67.59961;96286.43;;;;
2022/01/15 03:58:16;;;;;;;8.75;5.35;;;;;;;-4.1;67.59961;96286.43;;;;
2022/01/15 03:59:17;;;;;;;8.75;5.35;;;;;;;-4.1;67.59961;96286.43;;;;
2022/01/15 04:00:17;;;;;;;8.75;5.35;;;;;;;-4.1;67.59961;96286.43;;;;
2022/01/15 04:01:21;;;;;;;8.75;5.35;;;;;;;-4.1;67.59961;96286.43;;;;
2022/01/15 04:02:22;;;;;;;8.75;5.35;;;;;;;-4.1;67.59961;96286.43;;;;
2022/01/15 04:03:22;;;;;;;9.899999;5.55;;;;;;;-4.2;67.7793;96280.62;;;;
2022/01/15 04:04:23;;;;;;;9.899999;5.55;;;;;;;-4.2;67.7793;96280.62;;;;
2022/01/15 04:05:24;;;;;;;9.899999;5.55;;;;;;;-4.2;67.7793;96280.62;;;;
2022/01/15 04:06:24;;;;;;;9.899999;5.55;;;;;;;-4.2;67.7793;96280.62;;;;
2022/01/15 04:07:25;;;;;;;9.899999;5.55;;;;;;;-4.2;67.7793;96280.62;;;;
2022/01/15 04:08:25;;;;;;;9.899999;5.55;;;;;;;-4.2;67.7793;96280.62;;;;
2022/01/15 04:09:26;;;;;;;9.899999;5.55;;;;;;;-4.2;67.7793;96280.62;;;;
2022/01/15 04:10:26;;;;;;;9.899999;5.55;;;;;;;-4.2;67.7793;96280.62;;;;
2022/01/15 04:11:27;;;;;;;9.899999;5.55;;;;;;;-4.2;67.7793;96280.62;;;;
2022/01/15 04:12:27;;;;;;;9.899999;5.55;;;;;;;-4.2;67.7793;96280.62;;;;
2022/01/15 04:13:28;;;;;;;9.3;5.500001;;;;;;;-4.29;67.85938;96282.2;;;;
2022/01/15 04:14:28;;;;;;;9.3;5.500001;;;;;;;-4.29;67.85938;96282.2;;;;
2022/01/15 04:15:29;;;;;;;9.3;5.500001;;;;;;;-4.29;67.85938;96282.2;;;;
2022/01/15 04:16:29;;;;;;;9.3;5.500001;;;;;;;-4.29;67.85938;96282.2;;;;
2022/01/15 04:17:30;;;;;;;9.3;5.500001;;;;;;;-4.29;67.85938;96282.2;;;;
2022/01/15 04:18:36;;;;;;;9.3;5.500001;;;;;;;-4.29;67.85938;96282.2;;;;
2022/01/15 04:19:39;;;;;;;9.3;5.500001;;;;;;;-4.29;67.85938;96282.2;;;;
2022/01/15 04:20:40;;;;;;;9.3;5.500001;;;;;;;-4.29;67.85938;96282.2;;;;
2022/01/15 04:21:40;;;;;;;9.3;5.500001;;;;;;;-4.29;67.85938;96282.2;;;;
2022/01/15 04:22:41;;;;;;;9.3;5.500001;;;;;;;-4.29;67.85938;96282.2;;;;
2022/01/15 04:23:41;;;;;;;9.3;5.500001;;;;;;;-4.29;67.85938;96282.2;;;;
2022/01/15 04:24:42;;;;;;;7;4.799999;;;;;;;-4.38;67.92871;96284.66;;;;
2022/01/15 04:25:42;;;;;;;7;4.799999;;;;;;;-4.38;67.92871;96284.66;;;;
2022/01/15 04:26:43;;;;;;;7;4.799999;;;;;;;-4.38;67.92871;96284.66;;;;
2022/01/15 04:27:44;;;;;;;7;4.799999;;;;;;;-4.38;67.92871;96284.66;;;;
2022/01/15 04:28:45;;;;;;;7;4.799999;;;;;;;-4.38;67.92871;96284.66;;;;
2022/01/15 04:29:46;;;;;;;7;4.799999;;;;;;;-4.38;67.92871;96284.66;;;;
2022/01/15 04:30:48;;;;;;;7;4.799999;;;;;;;-4.38;67.92871;96284.66;;;;
2022/01/15 04:31:50;;;;;;;7;4.799999;;;;;;;-4.38;67.92871;96284.66;;;;
2022/01/15 04:32:50;;;;;;;7;4.799999;;;;;;;-4.38;67.92871;96284.66;;;;
2022/01/15 04:33:51;;;;;;;7;4.799999;;;;;;;-4.38;67.92871;96284.66;;;;
2022/01/15 04:34:51;;;;;;;8.450002;5.3;;;;;;;-4.45;68.05957;96286.16;;;;
2022/01/15 04:35:52;;;;;;;8.450002;5.3;;;;;;;-4.45;68.05957;96286.16;;;;
2022/01/15 04:36:53;;;;;;;8.450002;5.3;;;;;;;-4.45;68.05957;96286.16;;;;
2022/01/15 04:38:03;;;;;;;8.450002;5.3;;;;;;;-4.45;68.05957;96286.16;;;;
2022/01/15 04:39:04;;;;;;;8.450002;5.3;;;;;;;-4.45;68.05957;96286.16;;;;
2022/01/15 04:40:04;;;;;;;8.450002;5.3;;;;;;;-4.45;68.05957;96286.16;;;;
2022/01/15 04:41:07;;;;;;;8.450002;5.3;;;;;;;-4.45;68.05957;96286.16;;;;
2022/01/15 04:42:08;;;;;;;8.450002;5.3;;;;;;;-4.45;68.05957;96286.16;;;;
2022/01/15 04:43:09;;;;;;;8.450002;5.3;;;;;;;-4.45;68.05957;96286.16;;;;
2022/01/15 04:44:09;;;;;;;8.450002;5.3;;;;;;;-4.45;68.05957;96286.16;;;;
2022/01/15 04:45:10;;;;;;;8.450002;5.3;;;;;;;-4.45;68.05957;96286.16;;;;
2022/01/15 04:46:11;;;;;;;8.650002;5.450001;;;;;;;-4.5;68.14648;96285.22;;;;
2022/01/15 04:47:12;;;;;;;8.650002;5.450001;;;;;;;-4.5;68.14648;96285.22;;;;
2022/01/15 04:48:12;;;;;;;8.650002;5.450001;;;;;;;-4.5;68.14648;96285.22;;;;
2022/01/15 04:49:13;;;;;;;8.650002;5.450001;;;;;;;-4.5;68.14648;96285.22;;;;
2022/01/15 04:50:14;;;;;;;8.650002;5.450001;;;;;;;-4.5;68.14648;96285.22;;;;
2022/01/15 04:51:15;;;;;;;8.650002;5.450001;;;;;;;-4.5;68.14648;96285.22;;;;
2022/01/15 04:52:16;;;;;;;8.650002;5.450001;;;;;;;-4.5;68.14648;96285.22;;;;
2022/01/15 04:53:16;;;;;;;8.650002;5.450001;;;;;;;-4.5;68.14648;96285.22;;;;
2022/01/15 04:54:17;;;;;;;8.650002;5.450001;;;;;;;-4.5;68.14648;96285.22;;;;
2022/01/15 04:55:18;;;;;;;8.650002;5.450001;;;;;;;-4.5;68.14648;96285.22;;;;
2022/01/15 04:56:18;;;;;;;9.049999;5.649999;;;;;;;-4.51;68.18652;96280.89;;;;
2022/01/15 04:57:19;;;;;;;9.049999;5.649999;;;;;;;-4.51;68.18652;96280.89;;;;
2022/01/15 04:58:19;;;;;;;9.049999;5.649999;;;;;;;-4.51;68.18652;96280.89;;;;
2022/01/15 04:59:20;;;;;;;9.049999;5.649999;;;;;;;-4.51;68.18652;96280.89;;;;
2022/01/15 05:00:21;;;;;;;9.049999;5.649999;;;;;;;-4.51;68.18652;96280.89;;;;
2022/01/15 05:01:21;;;;;;;9.049999;5.649999;;;;;;;-4.51;68.18652;96280.89;;;;
2022/01/15 05:02:22;;;;;;;9.049999;5.649999;;;;;;;-4.51;68.18652;96280.89;;;;
2022/01/15 05:03:23;;;;;;;9.049999;5.649999;;;;;;;-4.51;68.18652;96280.89;;;;
2022/01/15 05:04:23;;;;;;;9.049999;5.649999;;;;;;;-4.51;68.18652;96280.89;;;;
2022/01/15 05:05:24;;;;;;;9.049999;5.649999;;;;;;;-4.51;68.18652;96280.89;;;;
2022/01/15 05:06:25;;;;;;;9.049999;5.649999;;;;;;;-4.51;68.18652;96280.89;;;;
2022/01/15 05:07:26;;;;;;;8.500001;5.3;;;;;;;-4.56;68.20801;96279.57;;;;
2022/01/15 05:08:26;;;;;;;8.500001;5.3;;;;;;;-4.56;68.20801;96279.57;;;;
2022/01/15 05:09:27;;;;;;;8.500001;5.3;;;;;;;-4.56;68.20801;96279.57;;;;
2022/01/15 05:10:28;;;;;;;8.500001;5.3;;;;;;;-4.56;68.20801;96279.57;;;;
2022/01/15 05:11:32;;;;;;;8.500001;5.3;;;;;;;-4.56;68.20801;96279.57;;;;
2022/01/15 05:12:42;;;;;;;8.500001;5.3;;;;;;;-4.56;68.20801;96279.57;;;;
2022/01/15 05:13:42;;;;;;;8.500001;5.3;;;;;;;-4.56;68.20801;96279.57;;;;
2022/01/15 05:14:43;;;;;;;8.500001;5.3;;;;;;;-4.56;68.20801;96279.57;;;;
2022/01/15 05:15:43;;;;;;;8.500001;5.3;;;;;;;-4.56;68.20801;96279.57;;;;
2022/01/15 05:16:44;;;;;;;8.500001;5.3;;;;;;;-4.56;68.20801;96279.57;;;;
2022/01/15 05:17:45;;;;;;;10.35;5.35;;;;;;;-4.61;68.2959;96276.42;;;;
2022/01/15 05:18:46;;;;;;;10.35;5.35;;;;;;;-4.61;68.2959;96276.42;;;;
2022/01/15 05:19:47;;;;;;;10.35;5.35;;;;;;;-4.61;68.2959;96276.42;;;;
2022/01/15 05:20:49;;;;;;;10.35;5.35;;;;;;;-4.61;68.2959;96276.42;;;;
2022/01/15 05:21:49;;;;;;;10.35;5.35;;;;;;;-4.61;68.2959;96276.42;;;;
2022/01/15 05:22:50;;;;;;;10.35;5.35;;;;;;;-4.61;68.2959;96276.42;;;;
2022/01/15 05:23:50;;;;;;;10.35;5.35;;;;;;;-4.61;68.2959;96276.42;;;;
2022/01/15 05:24:51;;;;;;;10.35;5.35;;;;;;;-4.61;68.2959;96276.42;;;;
2022/01/15 05:25:51;;;;;;;10.35;5.35;;;;;;;-4.61;68.2959;96276.42;;;;
2022/01/15 05:26:51;;;;;;;10.35;5.35;;;;;;;-4.61;68.2959;96276.42;;;;
2022/01/15 05:27:52;;;;;;;10.35;5.35;;;;;;;-4.61;68.2959;96276.42;;;;
2022/01/15 05:28:53;;;;;;;8.65;5.45;;;;;;;-4.64;68.3291;96284.61;;;;
2022/01/15 05:29:53;;;;;;;8.65;5.45;;;;;;;-4.64;68.3291;96284.61;;;;
2022/01/15 05:30:53;;;;;;;8.65;5.45;;;;;;;-4.64;68.3291;96284.61;;;;
2022/01/15 05:31:54;;;;;;;8.65;5.45;;;;;;;-4.64;68.3291;96284.61;;;;
2022/01/15 05:32:54;;;;;;;8.65;5.45;;;;;;;-4.64;68.3291;96284.61;;;;
2022/01/15 05:33:55;;;;;;;8.65;5.45;;;;;;;-4.64;68.3291;96284.61;;;;
2022/01/15 05:34:57;;;;;;;8.65;5.45;;;;;;;-4.64;68.3291;96284.61;;;;
2022/01/15 05:35:57;;;;;;;8.65;5.45;;;;;;;-4.64;68.3291;96284.61;;;;
2022/01/15 05:36:58;;;;;;;8.65;5.45;;;;;;;-4.64;68.3291;96284.61;;;;
2022/01/15 05:37:58;;;;;;;8.65;5.45;;;;;;;-4.64;68.3291;96284.61;;;;
2022/01/15 05:38:59;;;;;;;10;5.699999;;;;;;;-4.7;68.41309;96284.19;;;;
2022/01/15 05:40:00;;;;;;;10;5.699999;;;;;;;-4.7;68.41309;96284.19;;;;
2022/01/15 05:41:01;;;;;;;10;5.699999;;;;;;;-4.7;68.41309;96284.19;;;;
2022/01/15 05:42:01;;;;;;;10;5.699999;;;;;;;-4.7;68.41309;96284.19;;;;
2022/01/15 05:43:02;;;;;;;10;5.699999;;;;;;;-4.7;68.41309;96284.19;;;;
2022/01/15 05:44:03;;;;;;;10;5.699999;;;;;;;-4.7;68.41309;96284.19;;;;
2022/01/15 05:45:04;;;;;;;10;5.699999;;;;;;;-4.7;68.41309;96284.19;;;;
2022/01/15 05:46:05;;;;;;;10;5.699999;;;;;;;-4.7;68.41309;96284.19;;;;
2022/01/15 05:47:06;;;;;;;10;5.699999;;;;;;;-4.7;68.41309;96284.19;;;;
2022/01/15 05:48:07;;;;;;;10;5.699999;;;;;;;-4.7;68.41309;96284.19;;;;
2022/01/15 05:49:08;;;;;;;10;5.699999;;;;;;;-4.7;68.41309;96284.19;;;;
2022/01/15 05:50:08;;;;;;;9.8;5.349999;;;;;;;-4.75;68.49805;96279.77;;;;
2022/01/15 05:51:10;;;;;;;9.8;5.349999;;;;;;;-4.75;68.49805;96279.77;;;;